Aeroporto :
LOGIN :

Iscrizione | Disclaimer

   EN    FR    IT 

 










Sommario :    VFR   VFR Marginale   IFR   IFR Intensivo   IFR Molto Intensivo
Visibilità : 
Base nubi : 
>= 8 km
>= 3000ft
5 / 8 km
1000 / 3000 ft
1500m / 5 km
500 / 1000 ft
800 / 1500m
200 / 500 ft
< 800m
< 200 ft
Simboli :   Temporali  Nebbia  Neve Forte  Precipitazioni Forti  Vento > 20 kt
SIGMETs :   Varie  Temporali  Ghiacco  Turbolenza  Onda orograficha  Ceneri Vulcaniche






- Altitudine del aeroporto : 157 ft
- Codice IATA : LIL


LFQQ - Lille Lesquin

ULTIMO METAR :
  • 132000Z AUTO 21006KT CAVOK 15/13 Q1011 NOSIG

METARs OBSOLETI :
  • 131930Z AUTO 23008KT 9999 FEW041 BKN054 BKN066 15/13 Q1010 NOSIG
  • 131900Z AUTO 24009KT 9999 FEW012 OVC041 15/13 Q1010 TEMPO 4000 RA BKN013
  • 131830Z AUTO 24011KT 9999 FEW013/// SCT036/// BKN042/// ///TCU 15/13 Q1010 TEMPO 4000 RA BECMG BKN040
  • 131800Z AUTO 25010KT 9999 -DZ BKN039/// BKN056/// BKN070/// ///TCU 15/13 Q1009 TEMPO 4000 RA BKN013
  • 131730Z AUTO 25015KT 9999 -DZ BKN027 BKN036 BKN044 15/13 Q1009 BECMG 24005KT

TAF TAF LFQQ
Valido dal 13 a 18 ore il 15 a 00 ore UTC


131700Z 1318/1424 24010KT 9999 BKN040
TEMPO 1318/1320 4000 RA BKN013
BECMG 1320/1323 VRB02KT
BECMG 1406/1408 07010KT OVC015
TEMPO 1408/1411 3000 RA BKN008 BKN050TCU
BECMG 1411/1413 16010KT CAVOK
PROB40
TEMPO 1419/1422 VRB20G35KT 2000 TSRAGR BKN030CB
ATIS : +33 3 20 16 19 54



MetMap, La meteo Aeronautica in un colpo d'occhio ! - Copyright ORBIFLY Dicembre 2007 - Disclaimer

ORBIFLY MET'MAP TEAM :

Programmazione e sviluppo : Alexandra Zaïnal
Concezione e sviluppo : Baudouin d'Aumeries
Co-Programmazione e sviluppo : Marc-Olivier Méhu
Supporto tecnico e logistico : Manuel Goepfert
Aiuto per la traduzione : Arnaldo La Scala

Contatto : metmap@orbifly.com




FONTI E CREDITI :

   NOAA